sensor_id;sensor_type;location;lat;lon;timestamp;P1;durP1;ratioP1;P2;durP2;ratioP2
30635;SDS011;17400;52.392;9.750;2022-10-14T00:00:24;16.52;;;8.73;;
30635;SDS011;17400;52.392;9.750;2022-10-14T00:02:51;14.63;;;10.02;;
30635;SDS011;17400;52.392;9.750;2022-10-14T00:05:20;13.85;;;8.43;;
30635;SDS011;17400;52.392;9.750;2022-10-14T00:07:48;17.02;;;9.93;;
30635;SDS011;17400;52.392;9.750;2022-10-14T00:10:16;17.77;;;9.65;;
30635;SDS011;17400;52.392;9.750;2022-10-14T00:12:43;15.63;;;10.15;;
30635;SDS011;17400;52.392;9.750;2022-10-14T00:15:12;14.65;;;8.52;;
30635;SDS011;17400;52.392;9.750;2022-10-14T00:17:40;22.15;;;11.63;;
30635;SDS011;17400;52.392;9.750;2022-10-14T00:20:08;16.27;;;10.07;;
30635;SDS011;17400;52.392;9.750;2022-10-14T00:22:37;19.15;;;10.65;;
30635;SDS011;17400;52.392;9.750;2022-10-14T00:25:05;17.10;;;10.18;;
30635;SDS011;17400;52.392;9.750;2022-10-14T00:27:33;14.25;;;9.23;;
30635;SDS011;17400;52.392;9.750;2022-10-14T00:30:01;18.92;;;9.85;;
30635;SDS011;17400;52.392;9.750;2022-10-14T00:32:29;18.38;;;10.18;;
30635;SDS011;17400;52.392;9.750;2022-10-14T00:34:57;18.80;;;9.50;;
30635;SDS011;17400;52.392;9.750;2022-10-14T00:37:24;15.05;;;9.00;;
30635;SDS011;17400;52.392;9.750;2022-10-14T00:39:54;17.52;;;10.48;;
30635;SDS011;17400;52.392;9.750;2022-10-14T00:42:22;18.83;;;10.15;;
30635;SDS011;17400;52.392;9.750;2022-10-14T00:44:56;15.60;;;8.45;;
30635;SDS011;17400;52.392;9.750;2022-10-14T00:47:27;18.35;;;8.30;;
30635;SDS011;17400;52.392;9.750;2022-10-14T00:49:55;20.20;;;9.30;;
30635;SDS011;17400;52.392;9.750;2022-10-14T00:52:25;14.02;;;7.72;;
30635;SDS011;17400;52.392;9.750;2022-10-14T00:54:55;16.23;;;9.38;;
30635;SDS011;17400;52.392;9.750;2022-10-14T00:57:28;16.73;;;9.52;;
30635;SDS011;17400;52.392;9.750;2022-10-14T00:59:57;17.50;;;10.45;;
30635;SDS011;17400;52.392;9.750;2022-10-14T01:02:28;17.15;;;10.07;;
30635;SDS011;17400;52.392;9.750;2022-10-14T01:04:57;16.60;;;10.43;;
30635;SDS011;17400;52.392;9.750;2022-10-14T01:07:29;17.17;;;9.43;;
30635;SDS011;17400;52.392;9.750;2022-10-14T01:10:06;15.38;;;8.02;;
30635;SDS011;17400;52.392;9.750;2022-10-14T01:12:44;14.85;;;8.38;;
30635;SDS011;17400;52.392;9.750;2022-10-14T01:15:23;14.40;;;7.20;;
30635;SDS011;17400;52.392;9.750;2022-10-14T01:18:00;20.38;;;9.02;;
30635;SDS011;17400;52.392;9.750;2022-10-14T01:27:11;13.00;;;8.48;;
30635;SDS011;17400;52.392;9.750;2022-10-14T01:29:51;19.83;;;10.75;;
30635;SDS011;17400;52.392;9.750;2022-10-14T01:32:27;13.85;;;7.85;;
30635;SDS011;17400;52.392;9.750;2022-10-14T01:35:00;13.13;;;8.68;;
30635;SDS011;17400;52.392;9.750;2022-10-14T01:37:31;16.52;;;8.20;;
30635;SDS011;17400;52.392;9.750;2022-10-14T01:40:04;18.50;;;10.40;;
30635;SDS011;17400;52.392;9.750;2022-10-14T01:42:38;17.30;;;8.88;;
30635;SDS011;17400;52.392;9.750;2022-10-14T01:45:11;15.48;;;8.70;;
30635;SDS011;17400;52.392;9.750;2022-10-14T01:47:44;16.42;;;8.90;;
30635;SDS011;17400;52.392;9.750;2022-10-14T01:50:17;18.48;;;8.57;;
30635;SDS011;17400;52.392;9.750;2022-10-14T01:52:49;26.05;;;12.00;;
30635;SDS011;17400;52.392;9.750;2022-10-14T01:55:21;17.05;;;9.90;;
30635;SDS011;17400;52.392;9.750;2022-10-14T01:57:52;16.52;;;8.98;;
30635;SDS011;17400;52.392;9.750;2022-10-14T02:00:24;18.80;;;9.18;;
30635;SDS011;17400;52.392;9.750;2022-10-14T02:02:52;19.27;;;10.02;;
30635;SDS011;17400;52.392;9.750;2022-10-14T02:05:21;17.25;;;9.48;;
30635;SDS011;17400;52.392;9.750;2022-10-14T02:07:56;16.73;;;9.43;;
30635;SDS011;17400;52.392;9.750;2022-10-14T02:10:35;19.20;;;11.15;;
30635;SDS011;17400;52.392;9.750;2022-10-14T02:13:18;17.13;;;10.18;;
30635;SDS011;17400;52.392;9.750;2022-10-14T02:16:07;14.65;;;7.50;;
30635;SDS011;17400;52.392;9.750;2022-10-14T02:18:45;18.90;;;9.45;;
30635;SDS011;17400;52.392;9.750;2022-10-14T02:21:19;17.38;;;9.65;;
30635;SDS011;17400;52.392;9.750;2022-10-14T02:23:52;20.35;;;11.10;;
30635;SDS011;17400;52.392;9.750;2022-10-14T02:26:23;19.77;;;10.52;;
30635;SDS011;17400;52.392;9.750;2022-10-14T02:28:53;19.60;;;11.00;;
30635;SDS011;17400;52.392;9.750;2022-10-14T02:31:24;17.67;;;11.23;;
30635;SDS011;17400;52.392;9.750;2022-10-14T02:33:55;20.52;;;10.70;;
30635;SDS011;17400;52.392;9.750;2022-10-14T02:36:26;19.77;;;9.65;;
30635;SDS011;17400;52.392;9.750;2022-10-14T02:38:56;17.67;;;9.02;;
30635;SDS011;17400;52.392;9.750;2022-10-14T02:41:28;18.10;;;9.35;;
30635;SDS011;17400;52.392;9.750;2022-10-14T02:43:58;17.77;;;9.00;;
30635;SDS011;17400;52.392;9.750;2022-10-14T02:46:28;16.67;;;8.75;;
30635;SDS011;17400;52.392;9.750;2022-10-14T02:48:55;15.98;;;8.85;;
30635;SDS011;17400;52.392;9.750;2022-10-14T02:51:23;16.15;;;8.68;;
30635;SDS011;17400;52.392;9.750;2022-10-14T02:53:51;13.45;;;6.82;;
30635;SDS011;17400;52.392;9.750;2022-10-14T02:56:20;11.55;;;7.00;;
30635;SDS011;17400;52.392;9.750;2022-10-14T02:58:47;15.68;;;8.52;;
30635;SDS011;17400;52.392;9.750;2022-10-14T03:01:15;17.77;;;9.60;;
30635;SDS011;17400;52.392;9.750;2022-10-14T03:03:44;15.65;;;8.52;;
30635;SDS011;17400;52.392;9.750;2022-10-14T03:06:12;17.35;;;8.68;;
30635;SDS011;17400;52.392;9.750;2022-10-14T03:08:40;13.77;;;8.27;;
30635;SDS011;17400;52.392;9.750;2022-10-14T03:11:07;16.35;;;8.48;;
30635;SDS011;17400;52.392;9.750;2022-10-14T03:13:35;13.52;;;8.02;;
30635;SDS011;17400;52.392;9.750;2022-10-14T03:16:03;19.63;;;10.15;;
30635;SDS011;17400;52.392;9.750;2022-10-14T03:18:31;18.48;;;9.77;;
30635;SDS011;17400;52.392;9.750;2022-10-14T03:21:00;18.25;;;9.95;;
30635;SDS011;17400;52.392;9.750;2022-10-14T03:23:28;15.40;;;8.40;;
30635;SDS011;17400;52.392;9.750;2022-10-14T03:25:55;16.80;;;8.88;;
30635;SDS011;17400;52.392;9.750;2022-10-14T03:28:23;17.00;;;9.35;;
30635;SDS011;17400;52.392;9.750;2022-10-14T03:30:51;19.80;;;10.80;;
30635;SDS011;17400;52.392;9.750;2022-10-14T03:33:19;18.35;;;8.88;;
30635;SDS011;17400;52.392;9.750;2022-10-14T03:35:53;16.63;;;8.05;;
30635;SDS011;17400;52.392;9.750;2022-10-14T03:38:22;17.83;;;10.43;;
30635;SDS011;17400;52.392;9.750;2022-10-14T03:40:50;15.98;;;8.02;;
30635;SDS011;17400;52.392;9.750;2022-10-14T03:43:18;18.92;;;10.32;;
30635;SDS011;17400;52.392;9.750;2022-10-14T03:45:46;15.52;;;9.05;;
30635;SDS011;17400;52.392;9.750;2022-10-14T03:48:14;18.23;;;9.57;;
30635;SDS011;17400;52.392;9.750;2022-10-14T03:50:41;22.33;;;10.93;;
30635;SDS011;17400;52.392;9.750;2022-10-14T03:53:09;19.65;;;10.27;;
30635;SDS011;17400;52.392;9.750;2022-10-14T03:55:39;20.58;;;10.35;;
30635;SDS011;17400;52.392;9.750;2022-10-14T03:58:07;20.98;;;11.00;;
30635;SDS011;17400;52.392;9.750;2022-10-14T04:00:37;23.17;;;10.98;;
30635;SDS011;17400;52.392;9.750;2022-10-14T04:03:04;20.08;;;10.73;;
30635;SDS011;17400;52.392;9.750;2022-10-14T04:05:32;14.90;;;10.18;;
30635;SDS011;17400;52.392;9.750;2022-10-14T04:08:00;20.45;;;11.25;;
30635;SDS011;17400;52.392;9.750;2022-10-14T04:10:28;16.05;;;10.70;;
30635;SDS011;17400;52.392;9.750;2022-10-14T04:12:57;15.43;;;9.50;;
30635;SDS011;17400;52.392;9.750;2022-10-14T04:15:25;19.50;;;11.35;;
30635;SDS011;17400;52.392;9.750;2022-10-14T04:17:53;17.67;;;10.27;;
30635;SDS011;17400;52.392;9.750;2022-10-14T04:20:22;17.75;;;9.65;;
30635;SDS011;17400;52.392;9.750;2022-10-14T04:22:49;18.40;;;10.45;;
30635;SDS011;17400;52.392;9.750;2022-10-14T04:25:17;16.90;;;9.68;;
30635;SDS011;17400;52.392;9.750;2022-10-14T04:27:45;19.65;;;11.45;;
30635;SDS011;17400;52.392;9.750;2022-10-14T04:30:14;14.55;;;9.32;;
30635;SDS011;17400;52.392;9.750;2022-10-14T04:32:41;18.88;;;9.50;;
30635;SDS011;17400;52.392;9.750;2022-10-14T04:35:09;17.27;;;9.52;;
30635;SDS011;17400;52.392;9.750;2022-10-14T04:37:37;16.30;;;9.38;;
30635;SDS011;17400;52.392;9.750;2022-10-14T04:40:05;18.77;;;10.48;;
30635;SDS011;17400;52.392;9.750;2022-10-14T04:42:33;17.83;;;10.27;;
30635;SDS011;17400;52.392;9.750;2022-10-14T04:45:00;16.33;;;9.95;;
30635;SDS011;17400;52.392;9.750;2022-10-14T04:47:30;23.05;;;11.55;;
30635;SDS011;17400;52.392;9.750;2022-10-14T04:49:57;19.83;;;10.90;;
30635;SDS011;17400;52.392;9.750;2022-10-14T04:52:25;19.60;;;9.70;;
30635;SDS011;17400;52.392;9.750;2022-10-14T04:54:53;18.67;;;10.15;;
30635;SDS011;17400;52.392;9.750;2022-10-14T04:57:21;20.98;;;11.98;;
30635;SDS011;17400;52.392;9.750;2022-10-14T04:59:48;28.20;;;17.55;;
30635;SDS011;17400;52.392;9.750;2022-10-14T05:02:16;22.60;;;14.48;;
30635;SDS011;17400;52.392;9.750;2022-10-14T05:04:45;26.27;;;14.27;;
30635;SDS011;17400;52.392;9.750;2022-10-14T05:07:13;23.90;;;14.57;;
30635;SDS011;17400;52.392;9.750;2022-10-14T05:09:41;21.85;;;11.23;;
30635;SDS011;17400;52.392;9.750;2022-10-14T05:12:15;21.05;;;10.88;;
30635;SDS011;17400;52.392;9.750;2022-10-14T05:14:43;18.90;;;10.68;;
30635;SDS011;17400;52.392;9.750;2022-10-14T05:17:11;22.85;;;12.55;;
30635;SDS011;17400;52.392;9.750;2022-10-14T05:19:38;18.73;;;11.50;;
30635;SDS011;17400;52.392;9.750;2022-10-14T05:22:07;21.73;;;11.95;;
30635;SDS011;17400;52.392;9.750;2022-10-14T05:24:35;15.82;;;10.18;;
30635;SDS011;17400;52.392;9.750;2022-10-14T05:27:03;17.52;;;9.95;;
30635;SDS011;17400;52.392;9.750;2022-10-14T05:29:30;16.67;;;9.88;;
30635;SDS011;17400;52.392;9.750;2022-10-14T05:31:58;16.63;;;8.85;;
30635;SDS011;17400;52.392;9.750;2022-10-14T05:34:26;14.75;;;9.48;;
30635;SDS011;17400;52.392;9.750;2022-10-14T05:36:54;17.88;;;10.48;;
30635;SDS011;17400;52.392;9.750;2022-10-14T05:39:23;21.05;;;10.65;;
30635;SDS011;17400;52.392;9.750;2022-10-14T05:41:51;22.95;;;12.02;;
30635;SDS011;17400;52.392;9.750;2022-10-14T05:44:20;19.92;;;11.00;;
30635;SDS011;17400;52.392;9.750;2022-10-14T05:46:48;18.63;;;10.35;;
30635;SDS011;17400;52.392;9.750;2022-10-14T05:49:16;16.85;;;9.57;;
30635;SDS011;17400;52.392;9.750;2022-10-14T05:51:44;21.70;;;11.02;;
30635;SDS011;17400;52.392;9.750;2022-10-14T05:54:12;20.10;;;9.93;;
30635;SDS011;17400;52.392;9.750;2022-10-14T05:56:41;16.48;;;9.57;;
30635;SDS011;17400;52.392;9.750;2022-10-14T05:59:09;26.20;;;13.48;;
30635;SDS011;17400;52.392;9.750;2022-10-14T06:01:38;22.00;;;10.68;;
30635;SDS011;17400;52.392;9.750;2022-10-14T06:04:10;19.52;;;11.80;;
30635;SDS011;17400;52.392;9.750;2022-10-14T06:06:43;23.13;;;11.57;;
30635;SDS011;17400;52.392;9.750;2022-10-14T06:09:11;19.92;;;11.23;;
30635;SDS011;17400;52.392;9.750;2022-10-14T06:11:41;22.17;;;11.35;;
30635;SDS011;17400;52.392;9.750;2022-10-14T06:14:09;20.98;;;10.80;;
30635;SDS011;17400;52.392;9.750;2022-10-14T06:16:37;22.83;;;12.13;;
30635;SDS011;17400;52.392;9.750;2022-10-14T06:19:05;22.55;;;10.88;;
30635;SDS011;17400;52.392;9.750;2022-10-14T06:21:32;21.77;;;12.00;;
30635;SDS011;17400;52.392;9.750;2022-10-14T06:24:00;19.38;;;11.05;;
30635;SDS011;17400;52.392;9.750;2022-10-14T06:26:28;23.65;;;11.63;;
30635;SDS011;17400;52.392;9.750;2022-10-14T06:28:57;21.95;;;12.43;;
30635;SDS011;17400;52.392;9.750;2022-10-14T06:31:25;24.02;;;11.85;;
30635;SDS011;17400;52.392;9.750;2022-10-14T06:33:57;22.48;;;12.30;;
30635;SDS011;17400;52.392;9.750;2022-10-14T06:36:25;23.83;;;12.05;;
30635;SDS011;17400;52.392;9.750;2022-10-14T06:38:53;23.27;;;10.73;;
30635;SDS011;17400;52.392;9.750;2022-10-14T06:41:21;23.63;;;11.80;;
30635;SDS011;17400;52.392;9.750;2022-10-14T06:43:49;22.17;;;11.20;;
30635;SDS011;17400;52.392;9.750;2022-10-14T06:46:18;22.25;;;10.68;;
30635;SDS011;17400;52.392;9.750;2022-10-14T06:48:46;19.75;;;12.43;;
30635;SDS011;17400;52.392;9.750;2022-10-14T06:51:15;24.25;;;12.30;;
30635;SDS011;17400;52.392;9.750;2022-10-14T06:53:43;19.42;;;10.52;;
30635;SDS011;17400;52.392;9.750;2022-10-14T06:56:11;19.13;;;10.55;;
30635;SDS011;17400;52.392;9.750;2022-10-14T06:58:39;22.33;;;11.40;;
30635;SDS011;17400;52.392;9.750;2022-10-14T07:01:07;18.45;;;10.98;;
30635;SDS011;17400;52.392;9.750;2022-10-14T07:03:36;30.13;;;15.13;;
30635;SDS011;17400;52.392;9.750;2022-10-14T07:06:05;22.73;;;11.50;;
30635;SDS011;17400;52.392;9.750;2022-10-14T07:08:34;22.85;;;10.85;;
30635;SDS011;17400;52.392;9.750;2022-10-14T07:11:02;20.50;;;10.55;;
30635;SDS011;17400;52.392;9.750;2022-10-14T07:13:31;28.60;;;14.38;;
30635;SDS011;17400;52.392;9.750;2022-10-14T07:16:00;26.42;;;12.55;;
30635;SDS011;17400;52.392;9.750;2022-10-14T07:18:28;26.73;;;13.75;;
30635;SDS011;17400;52.392;9.750;2022-10-14T07:21:01;30.13;;;14.07;;
30635;SDS011;17400;52.392;9.750;2022-10-14T07:23:29;22.75;;;12.38;;
30635;SDS011;17400;52.392;9.750;2022-10-14T07:25:58;29.17;;;13.00;;
30635;SDS011;17400;52.392;9.750;2022-10-14T07:28:26;28.55;;;14.15;;
30635;SDS011;17400;52.392;9.750;2022-10-14T07:30:58;28.35;;;14.07;;
30635;SDS011;17400;52.392;9.750;2022-10-14T07:33:27;34.10;;;15.63;;
30635;SDS011;17400;52.392;9.750;2022-10-14T07:35:55;31.25;;;13.98;;
30635;SDS011;17400;52.392;9.750;2022-10-14T07:38:29;34.08;;;14.52;;
30635;SDS011;17400;52.392;9.750;2022-10-14T07:40:59;30.38;;;15.18;;
30635;SDS011;17400;52.392;9.750;2022-10-14T07:43:28;31.08;;;13.90;;
30635;SDS011;17400;52.392;9.750;2022-10-14T07:45:59;29.88;;;14.43;;
30635;SDS011;17400;52.392;9.750;2022-10-14T07:48:28;29.30;;;13.48;;
30635;SDS011;17400;52.392;9.750;2022-10-14T07:51:12;32.60;;;13.73;;
30635;SDS011;17400;52.392;9.750;2022-10-14T07:53:39;29.48;;;12.68;;
30635;SDS011;17400;52.392;9.750;2022-10-14T07:56:07;31.92;;;14.88;;
30635;SDS011;17400;52.392;9.750;2022-10-14T07:58:35;28.65;;;14.43;;
30635;SDS011;17400;52.392;9.750;2022-10-14T08:01:09;28.63;;;12.27;;
30635;SDS011;17400;52.392;9.750;2022-10-14T08:03:38;33.10;;;15.85;;
30635;SDS011;17400;52.392;9.750;2022-10-14T08:06:07;29.55;;;13.45;;
30635;SDS011;17400;52.392;9.750;2022-10-14T08:08:36;24.48;;;12.05;;
30635;SDS011;17400;52.392;9.750;2022-10-14T08:11:06;26.63;;;12.68;;
30635;SDS011;17400;52.392;9.750;2022-10-14T08:13:37;30.80;;;13.52;;
30635;SDS011;17400;52.392;9.750;2022-10-14T08:16:12;23.65;;;11.13;;
30635;SDS011;17400;52.392;9.750;2022-10-14T08:18:41;31.73;;;13.98;;
30635;SDS011;17400;52.392;9.750;2022-10-14T08:21:09;28.48;;;12.80;;
30635;SDS011;17400;52.392;9.750;2022-10-14T08:23:39;24.25;;;12.63;;
30635;SDS011;17400;52.392;9.750;2022-10-14T08:26:13;24.95;;;11.68;;
30635;SDS011;17400;52.392;9.750;2022-10-14T08:28:45;29.33;;;11.95;;
30635;SDS011;17400;52.392;9.750;2022-10-14T08:31:13;32.78;;;14.27;;
30635;SDS011;17400;52.392;9.750;2022-10-14T08:33:41;33.65;;;14.25;;
30635;SDS011;17400;52.392;9.750;2022-10-14T08:36:08;31.23;;;12.25;;
30635;SDS011;17400;52.392;9.750;2022-10-14T08:38:37;23.33;;;10.90;;
30635;SDS011;17400;52.392;9.750;2022-10-14T08:41:14;22.65;;;13.13;;
30635;SDS011;17400;52.392;9.750;2022-10-14T08:43:53;29.35;;;14.23;;
30635;SDS011;17400;52.392;9.750;2022-10-14T08:46:33;32.70;;;14.63;;
30635;SDS011;17400;52.392;9.750;2022-10-14T08:49:05;24.08;;;12.75;;
30635;SDS011;17400;52.392;9.750;2022-10-14T08:51:41;30.52;;;13.15;;
30635;SDS011;17400;52.392;9.750;2022-10-14T08:54:13;25.42;;;11.57;;
30635;SDS011;17400;52.392;9.750;2022-10-14T08:56:48;22.23;;;10.75;;
30635;SDS011;17400;52.392;9.750;2022-10-14T08:59:16;24.88;;;11.52;;
30635;SDS011;17400;52.392;9.750;2022-10-14T09:01:48;33.60;;;14.48;;
30635;SDS011;17400;52.392;9.750;2022-10-14T09:04:18;23.55;;;12.48;;
30635;SDS011;17400;52.392;9.750;2022-10-14T09:06:47;27.65;;;12.32;;
30635;SDS011;17400;52.392;9.750;2022-10-14T09:09:19;25.67;;;12.82;;
30635;SDS011;17400;52.392;9.750;2022-10-14T09:11:51;26.90;;;11.13;;
30635;SDS011;17400;52.392;9.750;2022-10-14T09:14:24;26.27;;;11.27;;
30635;SDS011;17400;52.392;9.750;2022-10-14T09:16:58;17.88;;;8.93;;
30635;SDS011;17400;52.392;9.750;2022-10-14T09:19:30;15.90;;;9.13;;
30635;SDS011;17400;52.392;9.750;2022-10-14T09:22:00;15.57;;;9.50;;
30635;SDS011;17400;52.392;9.750;2022-10-14T09:24:31;16.98;;;8.40;;
30635;SDS011;17400;52.392;9.750;2022-10-14T09:27:02;14.68;;;7.65;;
30635;SDS011;17400;52.392;9.750;2022-10-14T09:29:32;12.88;;;8.27;;
30635;SDS011;17400;52.392;9.750;2022-10-14T09:32:11;10.65;;;6.40;;
30635;SDS011;17400;52.392;9.750;2022-10-14T09:34:43;13.73;;;7.75;;
30635;SDS011;17400;52.392;9.750;2022-10-14T09:37:19;14.05;;;6.70;;
30635;SDS011;17400;52.392;9.750;2022-10-14T09:39:54;9.52;;;5.75;;
30635;SDS011;17400;52.392;9.750;2022-10-14T09:42:27;11.45;;;5.28;;
30635;SDS011;17400;52.392;9.750;2022-10-14T09:45:09;9.07;;;5.65;;
30635;SDS011;17400;52.392;9.750;2022-10-14T09:47:42;10.00;;;4.93;;
30635;SDS011;17400;52.392;9.750;2022-10-14T09:50:19;11.85;;;5.80;;
30635;SDS011;17400;52.392;9.750;2022-10-14T09:52:54;8.52;;;4.97;;
30635;SDS011;17400;52.392;9.750;2022-10-14T09:55:28;9.18;;;4.47;;
30635;SDS011;17400;52.392;9.750;2022-10-14T09:57:59;9.82;;;5.03;;
30635;SDS011;17400;52.392;9.750;2022-10-14T10:00:31;8.68;;;4.57;;
30635;SDS011;17400;52.392;9.750;2022-10-14T10:03:02;9.40;;;5.10;;
30635;SDS011;17400;52.392;9.750;2022-10-14T10:05:31;8.23;;;4.10;;
30635;SDS011;17400;52.392;9.750;2022-10-14T10:08:02;5.70;;;4.13;;
30635;SDS011;17400;52.392;9.750;2022-10-14T10:10:42;6.22;;;4.05;;
30635;SDS011;17400;52.392;9.750;2022-10-14T10:13:32;10.35;;;5.50;;
30635;SDS011;17400;52.392;9.750;2022-10-14T10:16:17;7.90;;;3.95;;
30635;SDS011;17400;52.392;9.750;2022-10-14T10:18:48;6.60;;;4.47;;
30635;SDS011;17400;52.392;9.750;2022-10-14T10:21:17;5.72;;;3.42;;
30635;SDS011;17400;52.392;9.750;2022-10-14T10:23:54;6.55;;;3.95;;
30635;SDS011;17400;52.392;9.750;2022-10-14T10:26:25;4.63;;;3.15;;
30635;SDS011;17400;52.392;9.750;2022-10-14T10:28:58;6.35;;;3.22;;
30635;SDS011;17400;52.392;9.750;2022-10-14T10:34:25;4.40;;;3.10;;
30635;SDS011;17400;52.392;9.750;2022-10-14T10:37:21;3.83;;;2.20;;
30635;SDS011;17400;52.392;9.750;2022-10-14T10:39:56;4.13;;;2.67;;
30635;SDS011;17400;52.392;9.750;2022-10-14T10:42:38;3.63;;;2.20;;
30635;SDS011;17400;52.392;9.750;2022-10-14T10:45:19;3.63;;;2.40;;
30635;SDS011;17400;52.392;9.750;2022-10-14T10:48:04;2.75;;;1.65;;
30635;SDS011;17400;52.392;9.750;2022-10-14T10:50:40;3.70;;;1.60;;
30635;SDS011;17400;52.392;9.750;2022-10-14T10:53:19;3.55;;;2.15;;
30635;SDS011;17400;52.392;9.750;2022-10-14T10:56:01;3.05;;;1.70;;
30635;SDS011;17400;52.392;9.750;2022-10-14T10:58:52;2.97;;;1.90;;
30635;SDS011;17400;52.392;9.750;2022-10-14T11:01:34;4.03;;;2.53;;
30635;SDS011;17400;52.392;9.750;2022-10-14T11:04:13;3.40;;;1.92;;
30635;SDS011;17400;52.392;9.750;2022-10-14T11:06:49;3.15;;;1.80;;
30635;SDS011;17400;52.392;9.750;2022-10-14T11:09:41;2.72;;;1.73;;
30635;SDS011;17400;52.392;9.750;2022-10-14T11:12:41;3.50;;;2.40;;
30635;SDS011;17400;52.392;9.750;2022-10-14T11:15:22;3.30;;;1.83;;
30635;SDS011;17400;52.392;9.750;2022-10-14T11:17:58;3.63;;;2.08;;
30635;SDS011;17400;52.392;9.750;2022-10-14T11:20:33;2.53;;;1.48;;
30635;SDS011;17400;52.392;9.750;2022-10-14T11:23:14;2.50;;;1.50;;
30635;SDS011;17400;52.392;9.750;2022-10-14T11:26:01;2.72;;;1.90;;
30635;SDS011;17400;52.392;9.750;2022-10-14T11:28:36;2.60;;;1.60;;
30635;SDS011;17400;52.392;9.750;2022-10-14T11:31:15;3.63;;;2.20;;
30635;SDS011;17400;52.392;9.750;2022-10-14T11:34:02;3.80;;;1.85;;
30635;SDS011;17400;52.392;9.750;2022-10-14T11:36:38;2.67;;;1.63;;
30635;SDS011;17400;52.392;9.750;2022-10-14T11:39:21;2.00;;;1.52;;
30635;SDS011;17400;52.392;9.750;2022-10-14T11:42:02;5.95;;;1.70;;
30635;SDS011;17400;52.392;9.750;2022-10-14T11:44:40;2.22;;;1.35;;
30635;SDS011;17400;52.392;9.750;2022-10-14T11:47:11;2.13;;;1.58;;
30635;SDS011;17400;52.392;9.750;2022-10-14T11:49:49;1.88;;;1.48;;
30635;SDS011;17400;52.392;9.750;2022-10-14T11:52:23;7.22;;;1.48;;
30635;SDS011;17400;52.392;9.750;2022-10-14T11:54:55;2.63;;;1.48;;
30635;SDS011;17400;52.392;9.750;2022-10-14T11:57:29;2.03;;;1.42;;
30635;SDS011;17400;52.392;9.750;2022-10-14T12:00:03;3.30;;;1.98;;
30635;SDS011;17400;52.392;9.750;2022-10-14T12:02:53;3.47;;;2.20;;
30635;SDS011;17400;52.392;9.750;2022-10-14T12:05:29;2.40;;;1.58;;
30635;SDS011;17400;52.392;9.750;2022-10-14T12:08:06;1.98;;;1.00;;
30635;SDS011;17400;52.392;9.750;2022-10-14T12:10:42;1.83;;;1.17;;
30635;SDS011;17400;52.392;9.750;2022-10-14T12:13:13;1.90;;;1.23;;
30635;SDS011;17400;52.392;9.750;2022-10-14T12:15:46;2.05;;;1.40;;
30635;SDS011;17400;52.392;9.750;2022-10-14T12:18:17;2.25;;;1.38;;
30635;SDS011;17400;52.392;9.750;2022-10-14T12:20:47;2.05;;;1.30;;
30635;SDS011;17400;52.392;9.750;2022-10-14T12:23:25;2.40;;;1.38;;
30635;SDS011;17400;52.392;9.750;2022-10-14T12:25:59;2.75;;;1.65;;
30635;SDS011;17400;52.392;9.750;2022-10-14T12:28:33;1.67;;;1.30;;
30635;SDS011;17400;52.392;9.750;2022-10-14T12:31:18;2.97;;;1.75;;
30635;SDS011;17400;52.392;9.750;2022-10-14T12:36:53;2.30;;;1.40;;
30635;SDS011;17400;52.392;9.750;2022-10-14T12:39:28;2.30;;;1.35;;
30635;SDS011;17400;52.392;9.750;2022-10-14T12:41:59;2.92;;;1.50;;
30635;SDS011;17400;52.392;9.750;2022-10-14T12:44:33;2.15;;;1.70;;
30635;SDS011;17400;52.392;9.750;2022-10-14T12:47:14;2.65;;;1.48;;
30635;SDS011;17400;52.392;9.750;2022-10-14T12:49:49;2.85;;;1.83;;
30635;SDS011;17400;52.392;9.750;2022-10-14T12:52:20;3.63;;;1.67;;
30635;SDS011;17400;52.392;9.750;2022-10-14T12:54:51;2.63;;;1.73;;
30635;SDS011;17400;52.392;9.750;2022-10-14T12:57:24;2.05;;;1.83;;
30635;SDS011;17400;52.392;9.750;2022-10-14T12:59:55;2.25;;;1.10;;
30635;SDS011;17400;52.392;9.750;2022-10-14T13:02:28;2.50;;;1.77;;
30635;SDS011;17400;52.392;9.750;2022-10-14T13:05:00;2.40;;;1.40;;
30635;SDS011;17400;52.392;9.750;2022-10-14T13:07:39;1.77;;;1.23;;
30635;SDS011;17400;52.392;9.750;2022-10-14T13:10:26;1.42;;;1.00;;
30635;SDS011;17400;52.392;9.750;2022-10-14T13:19:37;2.35;;;1.60;;
30635;SDS011;17400;52.392;9.750;2022-10-14T13:25:11;4.47;;;2.97;;
30635;SDS011;17400;52.392;9.750;2022-10-14T13:27:46;4.07;;;2.80;;
30635;SDS011;17400;52.392;9.750;2022-10-14T13:30:22;5.60;;;3.05;;
30635;SDS011;17400;52.392;9.750;2022-10-14T13:33:02;2.47;;;2.13;;
30635;SDS011;17400;52.392;9.750;2022-10-14T13:35:41;4.53;;;2.53;;
30635;SDS011;17400;52.392;9.750;2022-10-14T13:38:17;3.58;;;2.50;;
30635;SDS011;17400;52.392;9.750;2022-10-14T13:40:46;4.03;;;2.42;;
30635;SDS011;17400;52.392;9.750;2022-10-14T13:43:17;3.38;;;2.15;;
30635;SDS011;17400;52.392;9.750;2022-10-14T13:45:48;2.72;;;1.60;;
30635;SDS011;17400;52.392;9.750;2022-10-14T13:48:20;2.55;;;1.80;;
30635;SDS011;17400;52.392;9.750;2022-10-14T13:50:56;1.70;;;1.05;;
30635;SDS011;17400;52.392;9.750;2022-10-14T13:54:07;2.13;;;1.50;;
30635;SDS011;17400;52.392;9.750;2022-10-14T13:56:40;1.38;;;1.05;;
30635;SDS011;17400;52.392;9.750;2022-10-14T13:59:16;1.40;;;1.27;;
30635;SDS011;17400;52.392;9.750;2022-10-14T14:02:08;2.92;;;1.40;;
30635;SDS011;17400;52.392;9.750;2022-10-14T14:04:41;3.50;;;1.67;;
30635;SDS011;17400;52.392;9.750;2022-10-14T14:07:18;2.08;;;1.67;;
30635;SDS011;17400;52.392;9.750;2022-10-14T14:10:11;3.58;;;1.35;;
30635;SDS011;17400;52.392;9.750;2022-10-14T14:12:45;4.25;;;1.38;;
30635;SDS011;17400;52.392;9.750;2022-10-14T14:15:16;2.05;;;1.30;;
30635;SDS011;17400;52.392;9.750;2022-10-14T14:17:48;2.35;;;1.38;;
30635;SDS011;17400;52.392;9.750;2022-10-14T14:20:17;2.25;;;1.33;;
30635;SDS011;17400;52.392;9.750;2022-10-14T14:22:48;1.98;;;1.23;;
30635;SDS011;17400;52.392;9.750;2022-10-14T14:25:22;2.38;;;1.50;;
30635;SDS011;17400;52.392;9.750;2022-10-14T14:28:02;1.45;;;1.00;;
30635;SDS011;17400;52.392;9.750;2022-10-14T14:30:32;2.42;;;1.30;;
30635;SDS011;17400;52.392;9.750;2022-10-14T14:33:03;1.65;;;1.23;;
30635;SDS011;17400;52.392;9.750;2022-10-14T14:35:33;2.75;;;1.70;;
30635;SDS011;17400;52.392;9.750;2022-10-14T14:38:01;3.70;;;1.67;;
30635;SDS011;17400;52.392;9.750;2022-10-14T14:40:31;2.63;;;1.75;;
30635;SDS011;17400;52.392;9.750;2022-10-14T14:42:59;2.30;;;1.50;;
30635;SDS011;17400;52.392;9.750;2022-10-14T14:45:29;2.25;;;1.30;;
30635;SDS011;17400;52.392;9.750;2022-10-14T14:48:10;2.60;;;1.65;;
30635;SDS011;17400;52.392;9.750;2022-10-14T14:50:42;2.67;;;1.55;;
30635;SDS011;17400;52.392;9.750;2022-10-14T14:53:12;3.80;;;2.22;;
30635;SDS011;17400;52.392;9.750;2022-10-14T14:55:45;2.13;;;1.25;;
30635;SDS011;17400;52.392;9.750;2022-10-14T14:58:26;2.53;;;1.60;;
30635;SDS011;17400;52.392;9.750;2022-10-14T15:00:59;2.70;;;1.65;;
30635;SDS011;17400;52.392;9.750;2022-10-14T15:03:27;2.65;;;1.55;;
30635;SDS011;17400;52.392;9.750;2022-10-14T15:05:58;1.98;;;1.33;;
30635;SDS011;17400;52.392;9.750;2022-10-14T15:08:28;2.40;;;1.50;;
30635;SDS011;17400;52.392;9.750;2022-10-14T15:10:59;2.70;;;1.95;;
30635;SDS011;17400;52.392;9.750;2022-10-14T15:13:29;3.20;;;1.88;;
30635;SDS011;17400;52.392;9.750;2022-10-14T15:15:59;3.88;;;2.47;;
30635;SDS011;17400;52.392;9.750;2022-10-14T15:18:27;6.88;;;2.22;;
30635;SDS011;17400;52.392;9.750;2022-10-14T15:21:02;4.10;;;2.63;;
30635;SDS011;17400;52.392;9.750;2022-10-14T15:23:36;2.80;;;2.05;;